createdAt,value
2018-07-30T00:00:30.670Z,46.85
2018-07-30T00:03:00.554Z,46.89
2018-07-30T00:05:30.272Z,46.67
2018-07-30T00:08:00.253Z,46.90
2018-07-30T00:10:30.576Z,46.61
2018-07-30T00:13:00.252Z,47.08
2018-07-30T00:15:29.979Z,46.59
2018-07-30T00:18:00.054Z,47.02
2018-07-30T00:20:29.925Z,47.58
2018-07-30T00:22:59.592Z,47.56
2018-07-30T00:25:30.009Z,47.83
2018-07-30T00:27:59.819Z,47.62
2018-07-30T00:30:30.252Z,47.56
2018-07-30T00:32:59.808Z,47.62
2018-07-30T00:35:29.664Z,48.11
2018-07-30T00:38:00.085Z,48.25
2018-07-30T00:40:29.690Z,48.58
2018-07-30T00:43:00.164Z,47.94
2018-07-30T00:45:29.749Z,48.22
2018-07-30T00:47:59.559Z,48.66
2018-07-30T00:50:29.480Z,48.43
2018-07-30T00:52:59.803Z,48.49
2018-07-30T00:55:30.010Z,47.93
2018-07-30T00:57:59.747Z,48.03
2018-07-30T01:00:29.648Z,48.82
2018-07-30T01:02:59.555Z,48.94
2018-07-30T01:05:29.779Z,48.61
2018-07-30T01:07:59.685Z,48.71
2018-07-30T01:10:29.524Z,48.37
2018-07-30T01:12:59.247Z,48.85
2018-07-30T01:15:29.034Z,48.96
2018-07-30T01:17:59.902Z,49.00
2018-07-30T01:20:29.512Z,49.26
2018-07-30T01:22:59.567Z,49.21
2018-07-30T01:25:29.831Z,49.07
2018-07-30T01:27:59.448Z,49.14
2018-07-30T01:30:29.867Z,49.40
2018-07-30T01:32:59.484Z,49.27
2018-07-30T01:35:29.529Z,49.58
2018-07-30T01:37:59.627Z,49.68
2018-07-30T01:40:29.497Z,49.19
2018-07-30T01:42:59.687Z,49.55
2018-07-30T01:45:29.451Z,50.38
2018-07-30T01:48:00.084Z,50.75
2018-07-30T01:50:29.676Z,51.01
2018-07-30T01:52:59.472Z,51.31
2018-07-30T01:55:29.158Z,50.59
2018-07-30T01:57:59.488Z,51.30
2018-07-30T02:00:29.402Z,52.37
2018-07-30T02:02:59.797Z,51.29
2018-07-30T02:05:30.360Z,52.20
2018-07-30T02:08:00.301Z,51.44
2018-07-30T02:10:30.131Z,51.33
2018-07-30T02:13:00.437Z,51.27
2018-07-30T02:15:30.087Z,51.22
2018-07-30T02:18:00.006Z,51.60
2018-07-30T02:20:29.620Z,51.98
2018-07-30T02:22:59.421Z,51.62
2018-07-30T02:25:29.442Z,52.03
2018-07-30T02:27:59.044Z,52.33
2018-07-30T02:30:28.843Z,53.08
2018-07-30T02:32:58.851Z,53.35
2018-07-30T02:35:28.509Z,54.11
2018-07-30T02:37:58.395Z,52.98
2018-07-30T02:40:29.321Z,54.42
2018-07-30T02:42:59.107Z,54.80
2018-07-30T02:45:29.499Z,55.15
2018-07-30T02:47:59.394Z,55.17
2018-07-30T02:50:29.321Z,55.27
2018-07-30T02:52:58.930Z,56.08
2018-07-30T02:55:28.816Z,55.76
2018-07-30T02:57:58.709Z,56.54
2018-07-30T03:00:28.457Z,56.39
2018-07-30T03:02:58.426Z,55.50
2018-07-30T03:05:28.851Z,55.54
2018-07-30T03:07:58.814Z,55.99
2018-07-30T03:10:28.614Z,55.10
2018-07-30T03:12:59.270Z,55.39
2018-07-30T03:15:29.048Z,56.13
2018-07-30T03:17:58.759Z,55.75
2018-07-30T03:20:28.500Z,55.77
2018-07-30T03:22:58.108Z,56.00
2018-07-30T03:25:28.333Z,55.76
2018-07-30T03:27:58.157Z,56.41
2018-07-30T03:30:27.988Z,56.20
2018-07-30T03:32:57.868Z,56.70
2018-07-30T03:35:28.159Z,57.53
2018-07-30T03:37:58.363Z,57.38
2018-07-30T03:40:28.856Z,57.68
2018-07-30T03:42:58.523Z,57.12
2018-07-30T03:45:28.194Z,56.34
2018-07-30T03:47:58.048Z,56.63
2018-07-30T03:50:27.892Z,56.95
2018-07-30T03:52:57.724Z,56.86
2018-07-30T03:55:27.363Z,57.56
2018-07-30T03:57:57.269Z,57.14
2018-07-30T04:00:28.118Z,57.97
2018-07-30T04:02:58.120Z,58.39
2018-07-30T04:05:28.026Z,58.38
2018-07-30T04:07:57.786Z,57.70
2018-07-30T04:10:27.572Z,57.83
2018-07-30T04:12:58.015Z,57.84
2018-07-30T04:15:27.572Z,56.98
2018-07-30T04:17:57.694Z,56.86
2018-07-30T04:20:28.105Z,56.20
2018-07-30T04:22:57.907Z,55.97
2018-07-30T04:25:28.158Z,55.13
2018-07-30T04:27:57.837Z,53.84
2018-07-30T04:30:27.647Z,48.66
2018-07-30T04:32:57.479Z,46.36
2018-07-30T04:35:27.359Z,46.87
2018-07-30T04:37:57.160Z,43.88
2018-07-30T04:40:27.573Z,43.78
2018-07-30T04:42:57.445Z,39.96
2018-07-30T04:45:27.436Z,40.60
2018-07-30T04:47:57.092Z,39.75
2018-07-30T04:50:26.765Z,36.81
2018-07-30T04:52:56.686Z,36.04
2018-07-30T04:55:26.574Z,37.11
2018-07-30T04:57:57.053Z,35.77
2018-07-30T05:00:26.670Z,36.02
2018-07-30T05:02:56.282Z,35.57
2018-07-30T05:05:26.798Z,35.17
2018-07-30T05:07:56.524Z,34.77
2018-07-30T05:10:26.920Z,42.71
2018-07-30T05:12:56.528Z,41.99
2018-07-30T05:15:26.296Z,36.11
2018-07-30T05:17:55.814Z,36.02
2018-07-30T05:20:25.696Z,34.75
2018-07-30T05:22:55.622Z,36.24
2018-07-30T05:25:25.244Z,31.08
2018-07-30T05:27:55.361Z,34.13
2018-07-30T05:30:25.267Z,32.36
2018-07-30T05:32:55.953Z,31.46
2018-07-30T05:35:25.876Z,28.27
2018-07-30T05:37:55.921Z,26.87
2018-07-30T05:40:25.833Z,25.12
2018-07-30T05:42:55.774Z,22.08
2018-07-30T05:45:25.766Z,22.05
2018-07-30T05:47:55.578Z,19.27
2018-07-30T05:50:25.288Z,25.01
2018-07-30T05:52:56.173Z,28.33
2018-07-30T05:55:26.019Z,21.96
2018-07-30T05:57:55.760Z,19.71
2018-07-30T06:00:25.595Z,20.35
2018-07-30T06:02:56.301Z,23.63
2018-07-30T06:05:25.918Z,26.58
2018-07-30T06:07:55.545Z,28.73
2018-07-30T06:10:25.971Z,25.31
2018-07-30T06:12:56.153Z,21.29
2018-07-30T06:15:26.001Z,20.73
2018-07-30T06:17:56.043Z,20.32
2018-07-30T06:20:25.848Z,21.31
2018-07-30T06:22:55.666Z,18.80
2018-07-30T06:25:26.165Z,19.46
2018-07-30T06:27:56.243Z,19.23
2018-07-30T06:30:26.156Z,21.38
2018-07-30T06:32:55.667Z,20.72
2018-07-30T06:35:25.445Z,18.40
2018-07-30T06:37:55.028Z,19.56
2018-07-30T06:40:25.407Z,19.15
2018-07-30T06:42:55.140Z,17.68
2018-07-30T06:45:24.852Z,18.00
2018-07-30T06:47:54.572Z,19.03
2018-07-30T06:50:24.272Z,19.48
2018-07-30T06:52:54.096Z,22.27
2018-07-30T06:55:23.755Z,25.39
2018-07-30T06:57:53.409Z,24.82
2018-07-30T07:00:23.305Z,23.78
2018-07-30T07:02:53.920Z,22.33
2018-07-30T07:05:23.981Z,20.70
2018-07-30T07:07:54.047Z,21.22
2018-07-30T07:10:23.941Z,25.04
2018-07-30T07:12:53.794Z,24.25
2018-07-30T07:15:23.623Z,27.20
2018-07-30T07:17:53.367Z,23.01
2018-07-30T07:20:22.953Z,23.78
2018-07-30T07:22:53.400Z,22.22
2018-07-30T07:25:23.271Z,23.91
2018-07-30T07:27:53.141Z,21.71
2018-07-30T07:30:23.327Z,23.74
2018-07-30T07:32:53.586Z,22.94
2018-07-30T07:35:23.232Z,21.98
2018-07-30T07:37:53.154Z,26.25
2018-07-30T07:40:22.970Z,25.94
2018-07-30T07:42:52.529Z,23.56
2018-07-30T07:45:22.364Z,20.34
2018-07-30T07:47:52.022Z,20.71
2018-07-30T07:50:21.855Z,20.90
2018-07-30T07:52:51.433Z,20.95
2018-07-30T07:55:21.225Z,23.48
2018-07-30T07:57:51.167Z,22.21
2018-07-30T08:00:20.945Z,23.21
2018-07-30T08:02:50.773Z,21.42
2018-07-30T08:05:20.404Z,24.34
2018-07-30T08:07:50.192Z,25.54
2018-07-30T08:10:20.561Z,25.27
2018-07-30T08:12:50.524Z,23.55
2018-07-30T08:15:20.233Z,24.43
2018-07-30T08:17:49.970Z,29.08
2018-07-30T08:20:19.575Z,29.69
2018-07-30T08:22:50.162Z,32.53
2018-07-30T08:25:19.963Z,32.44
2018-07-30T08:27:50.246Z,29.65
2018-07-30T08:30:19.870Z,27.82
2018-07-30T08:32:49.658Z,28.43
2018-07-30T08:35:19.260Z,29.08
2018-07-30T08:37:49.037Z,31.07
2018-07-30T08:40:18.836Z,31.51
2018-07-30T08:42:48.468Z,30.20
2018-07-30T08:45:18.199Z,30.39
2018-07-30T08:47:47.979Z,29.74
2018-07-30T08:50:17.810Z,31.82
2018-07-30T08:52:47.529Z,30.96
2018-07-30T08:55:17.375Z,30.59
2018-07-30T08:57:47.136Z,30.58
2018-07-30T09:00:19.015Z,30.89
2018-07-30T09:02:49.715Z,31.57
2018-07-30T09:05:20.268Z,32.23
2018-07-30T09:07:50.191Z,33.17
2018-07-30T09:10:19.924Z,30.67
2018-07-30T09:12:50.715Z,27.92
2018-07-30T09:15:20.170Z,29.20
2018-07-30T09:17:49.848Z,27.56
2018-07-30T09:20:19.490Z,31.71
2018-07-30T09:22:49.163Z,30.71
2018-07-30T09:25:18.953Z,29.81
2018-07-30T09:27:48.687Z,51.07
2018-07-30T09:30:18.569Z,47.30
2018-07-30T09:32:48.365Z,36.57
2018-07-30T09:35:18.227Z,36.02
2018-07-30T09:37:47.929Z,39.16
2018-07-30T09:40:24.610Z,36.26
2018-07-30T09:42:54.748Z,38.43
2018-07-30T09:45:25.191Z,39.15
2018-07-30T09:47:54.855Z,33.80
2018-07-30T09:50:25.760Z,29.50
2018-07-30T09:52:55.706Z,30.92
2018-07-30T09:55:25.562Z,32.35
2018-07-30T09:57:55.246Z,29.85
2018-07-30T10:00:29.649Z,29.31
2018-07-30T10:02:59.564Z,27.48
2018-07-30T10:05:29.487Z,29.06
2018-07-30T10:07:59.290Z,27.24
2018-07-30T10:10:29.993Z,26.99
2018-07-30T10:12:59.679Z,27.07
2018-07-30T10:15:30.195Z,30.01
2018-07-30T10:18:00.461Z,27.06
2018-07-30T10:20:30.484Z,27.68
2018-07-30T10:23:00.327Z,27.82
2018-07-30T10:25:30.229Z,28.91
2018-07-30T10:28:00.200Z,28.54
2018-07-30T10:30:30.078Z,27.46
2018-07-30T10:33:00.668Z,28.24
2018-07-30T10:35:30.924Z,27.52
2018-07-30T10:38:00.701Z,28.16
2018-07-30T10:40:31.341Z,26.27
2018-07-30T10:43:01.183Z,28.55
2018-07-30T10:45:31.660Z,27.86
2018-07-30T10:48:01.593Z,29.46
2018-07-30T10:50:31.315Z,29.03
2018-07-30T10:53:01.906Z,26.90
2018-07-30T10:55:32.446Z,27.50
2018-07-30T10:58:02.139Z,29.57
2018-07-30T11:00:31.943Z,29.52
2018-07-30T11:03:05.633Z,29.29
2018-07-30T11:05:35.252Z,27.37
2018-07-30T11:08:05.740Z,28.67
2018-07-30T11:10:36.859Z,27.76
2018-07-30T11:13:06.714Z,27.03
2018-07-30T11:15:37.099Z,29.08
2018-07-30T11:18:07.221Z,28.83
2018-07-30T11:20:36.877Z,28.71
2018-07-30T11:23:06.706Z,30.46
2018-07-30T11:25:36.879Z,28.74
2018-07-30T11:28:06.690Z,29.99
2018-07-30T11:30:36.305Z,30.50
2018-07-30T11:33:06.425Z,28.56
2018-07-30T11:35:36.387Z,30.18
2018-07-30T11:38:06.056Z,30.11
2018-07-30T11:40:36.320Z,29.93
2018-07-30T11:43:06.039Z,30.60
2018-07-30T11:45:35.698Z,33.33
2018-07-30T11:48:05.799Z,30.21
2018-07-30T11:50:35.850Z,31.31
2018-07-30T11:53:05.584Z,31.29
2018-07-30T11:55:35.193Z,32.08
2018-07-30T11:58:05.143Z,31.90
2018-07-30T12:00:34.924Z,30.47
2018-07-30T12:03:04.883Z,31.03
2018-07-30T12:05:35.161Z,30.67
2018-07-30T12:08:05.412Z,36.06
2018-07-30T12:10:35.200Z,30.52
2018-07-30T12:13:05.362Z,29.14
2018-07-30T12:15:35.234Z,30.50
2018-07-30T12:18:05.084Z,30.75
2018-07-30T12:20:34.681Z,30.99
2018-07-30T12:23:04.397Z,29.80
2018-07-30T12:25:34.026Z,30.21
2018-07-30T12:28:05.049Z,30.32
2018-07-30T12:30:35.091Z,30.56
2018-07-30T12:33:05.413Z,30.37
2018-07-30T12:35:35.140Z,30.78
2018-07-30T12:38:04.829Z,29.62
2018-07-30T12:40:35.945Z,29.74
2018-07-30T12:43:06.240Z,29.85
2018-07-30T12:45:41.216Z,29.60
2018-07-30T12:48:11.787Z,28.64
2018-07-30T12:50:41.923Z,28.94
2018-07-30T12:53:11.706Z,29.86
2018-07-30T12:55:41.707Z,30.21
2018-07-30T12:58:11.415Z,30.93
2018-07-30T13:00:41.809Z,29.15
2018-07-30T13:03:11.715Z,27.50
2018-07-30T13:05:41.455Z,28.60
2018-07-30T13:08:11.730Z,27.19
2018-07-30T13:10:41.892Z,28.56
2018-07-30T13:13:12.099Z,31.49
2018-07-30T13:15:42.454Z,31.46
2018-07-30T13:18:12.115Z,29.22
2018-07-30T13:20:42.008Z,28.24
2018-07-30T13:23:12.464Z,28.66
2018-07-30T13:25:42.542Z,29.27
2018-07-30T13:28:12.413Z,29.24
2018-07-30T13:30:41.929Z,28.65
2018-07-30T13:33:11.704Z,29.24
2018-07-30T13:35:41.252Z,29.25
2018-07-30T13:38:11.201Z,28.84
2018-07-30T13:40:41.081Z,51.91
2018-07-30T13:43:11.560Z,93.18
2018-07-30T13:45:41.383Z,100.00
2018-07-30T13:49:53.761Z,100.00
2018-07-30T13:52:32.988Z,100.00
2018-07-30T14:03:09.831Z,100.00
2018-07-30T14:05:39.772Z,55.44
2018-07-30T14:08:09.547Z,41.17
2018-07-30T14:10:39.395Z,38.83
2018-07-30T14:13:09.499Z,37.62
2018-07-30T14:15:39.507Z,30.74
2018-07-30T14:18:09.289Z,31.02
2018-07-30T14:20:39.244Z,29.50
2018-07-30T14:23:09.968Z,31.54
2018-07-30T14:25:39.678Z,30.40
2018-07-30T14:28:09.452Z,29.43
2018-07-30T14:30:39.363Z,28.15
2018-07-30T14:33:09.283Z,29.37
2018-07-30T14:35:39.110Z,29.86
2018-07-30T14:38:09.371Z,30.80
2018-07-30T14:40:40.476Z,28.05
2018-07-30T14:43:10.614Z,29.16
2018-07-30T14:45:40.504Z,29.21
2018-07-30T14:48:10.156Z,28.34
2018-07-30T14:50:39.962Z,28.75
2018-07-30T14:53:09.824Z,29.00
2018-07-30T14:55:41.188Z,29.14
2018-07-30T14:58:11.157Z,29.45
2018-07-30T15:00:41.088Z,28.94
2018-07-30T15:03:11.266Z,28.71
2018-07-30T15:05:42.338Z,29.30
2018-07-30T15:08:12.371Z,30.28
2018-07-30T15:10:42.370Z,31.00
2018-07-30T15:13:12.953Z,29.35
2018-07-30T15:15:42.757Z,29.42
2018-07-30T15:18:12.638Z,28.95
2018-07-30T15:20:42.755Z,29.20
2018-07-30T15:23:12.675Z,29.03
2018-07-30T15:25:42.566Z,28.87
2018-07-30T15:28:12.684Z,29.47
2018-07-30T15:30:42.611Z,29.58
2018-07-30T15:33:12.289Z,30.84
2018-07-30T15:35:42.315Z,30.09
2018-07-30T15:38:12.360Z,30.49
2018-07-30T15:40:42.339Z,29.33
2018-07-30T15:43:12.503Z,29.42
2018-07-30T15:45:42.585Z,30.07
2018-07-30T15:48:12.718Z,30.00
2018-07-30T15:50:42.505Z,29.74
2018-07-30T15:53:12.499Z,29.52
2018-07-30T15:55:42.170Z,29.82
2018-07-30T15:58:12.887Z,29.50
2018-07-30T16:00:42.811Z,29.89
2018-07-30T16:03:13.133Z,29.49
2018-07-30T16:05:43.123Z,29.82
2018-07-30T16:08:12.900Z,30.10
2018-07-30T16:10:49.369Z,29.84
2018-07-30T16:13:19.145Z,28.93
2018-07-30T16:15:48.936Z,29.16
2018-07-30T16:18:19.081Z,28.42
2018-07-30T16:20:48.760Z,27.50
2018-07-30T16:23:18.549Z,28.31
2018-07-30T16:25:48.199Z,27.87
2018-07-30T16:28:17.922Z,29.31
2018-07-30T16:30:48.259Z,30.82
2018-07-30T16:33:18.255Z,29.76
2018-07-30T16:35:48.075Z,29.52
2018-07-30T16:38:17.787Z,29.28
2018-07-30T16:40:47.760Z,29.30
2018-07-30T16:43:17.402Z,28.90
2018-07-30T16:45:47.323Z,28.82
2018-07-30T16:48:17.869Z,30.29
2018-07-30T16:50:47.751Z,30.65
2018-07-30T16:53:18.203Z,29.72
2018-07-30T16:55:48.644Z,30.08
2018-07-30T16:58:18.383Z,29.89
2018-07-30T17:00:48.072Z,30.01
2018-07-30T17:03:17.784Z,31.22
2018-07-30T17:05:47.489Z,31.25
2018-07-30T17:08:17.226Z,30.95
2018-07-30T17:10:47.630Z,31.47
2018-07-30T17:13:17.328Z,31.40
2018-07-30T17:15:47.064Z,31.26
2018-07-30T17:18:16.823Z,31.10
2018-07-30T17:20:46.571Z,31.07
2018-07-30T17:23:16.272Z,31.28
2018-07-30T17:25:46.057Z,31.79
2018-07-30T17:28:16.035Z,31.44
2018-07-30T17:30:46.811Z,32.14
2018-07-30T17:33:16.587Z,31.57
2018-07-30T17:35:46.625Z,31.59
2018-07-30T17:38:16.508Z,30.01
2018-07-30T17:40:47.033Z,30.30
2018-07-30T17:43:17.118Z,30.89
2018-07-30T17:45:49.293Z,30.54
2018-07-30T17:48:19.217Z,29.77
2018-07-30T17:50:49.682Z,29.73
2018-07-30T17:53:19.396Z,29.91
2018-07-30T17:55:49.215Z,29.39
2018-07-30T17:58:19.010Z,29.55
2018-07-30T18:00:49.345Z,29.50
2018-07-30T18:03:19.092Z,29.83
2018-07-30T18:05:49.410Z,30.26
2018-07-30T18:08:19.876Z,29.80
2018-07-30T18:10:49.534Z,30.28
2018-07-30T18:13:19.249Z,30.25
2018-07-30T18:15:49.190Z,30.27
2018-07-30T18:18:18.982Z,30.10
2018-07-30T18:20:48.831Z,30.40
2018-07-30T18:23:18.639Z,30.68
2018-07-30T18:25:48.357Z,30.76
2018-07-30T18:28:18.209Z,31.94
2018-07-30T18:30:47.987Z,31.43
2018-07-30T18:33:17.779Z,31.95
2018-07-30T18:35:47.707Z,31.96
2018-07-30T18:38:18.300Z,32.30
2018-07-30T18:40:48.168Z,33.34
2018-07-30T18:43:17.892Z,32.64
2018-07-30T18:45:47.645Z,32.74
2018-07-30T18:48:18.027Z,33.11
2018-07-30T18:50:48.003Z,32.94
2018-07-30T18:53:17.868Z,32.76
2018-07-30T18:55:48.118Z,34.21
2018-07-30T18:58:18.202Z,33.50
2018-07-30T19:00:48.245Z,34.31
2018-07-30T19:03:18.186Z,34.21
2018-07-30T19:05:48.156Z,35.25
2018-07-30T19:08:17.998Z,35.44
2018-07-30T19:10:47.769Z,35.04
2018-07-30T19:13:17.820Z,36.27
2018-07-30T19:15:47.609Z,36.76
2018-07-30T19:18:17.520Z,36.58
2018-07-30T19:20:48.166Z,36.76
2018-07-30T19:23:18.482Z,38.06
2018-07-30T19:25:49.094Z,37.29
2018-07-30T19:28:19.221Z,37.40
2018-07-30T19:30:49.575Z,38.57
2018-07-30T19:33:20.457Z,38.88
2018-07-30T19:35:51.306Z,39.47
2018-07-30T19:38:21.094Z,39.67
2018-07-30T19:40:51.020Z,39.34
2018-07-30T19:43:21.273Z,40.61
2018-07-30T19:45:51.423Z,40.66
2018-07-30T19:48:21.335Z,40.84
2018-07-30T19:50:51.140Z,41.03
2018-07-30T19:53:20.801Z,41.59
2018-07-30T19:55:50.783Z,41.96
2018-07-30T19:58:21.087Z,42.96
2018-07-30T20:00:50.656Z,43.12
2018-07-30T20:03:20.476Z,43.89
2018-07-30T20:05:50.144Z,43.75
2018-07-30T20:08:20.875Z,43.50
2018-07-30T20:10:50.781Z,44.09
2018-07-30T20:13:20.571Z,44.25
2018-07-30T20:15:50.450Z,44.74
2018-07-30T20:18:20.492Z,44.08
2018-07-30T20:20:50.788Z,44.97
2018-07-30T20:23:20.627Z,44.94
2018-07-30T20:25:50.720Z,45.22
2018-07-30T20:28:21.134Z,45.15
2018-07-30T20:30:51.511Z,46.01
2018-07-30T20:33:21.487Z,45.70
2018-07-30T20:35:51.597Z,46.33
2018-07-30T20:38:21.223Z,46.81
2018-07-30T20:40:51.224Z,46.88
2018-07-30T20:43:21.102Z,47.09
2018-07-30T20:45:51.188Z,46.76
2018-07-30T20:48:21.491Z,47.04
2018-07-30T20:50:51.713Z,47.65
2018-07-30T20:53:21.364Z,47.51
2018-07-30T20:55:51.430Z,46.90
2018-07-30T20:58:21.129Z,47.07
2018-07-30T21:00:51.494Z,47.56
2018-07-30T21:03:22.552Z,47.66
2018-07-30T21:05:52.516Z,48.38
2018-07-30T21:08:22.741Z,48.63
2018-07-30T21:10:52.506Z,48.97
2018-07-30T21:13:23.147Z,49.53
2018-07-30T21:15:52.968Z,49.74
2018-07-30T21:18:23.343Z,50.18
2018-07-30T21:20:53.188Z,49.86
2018-07-30T21:23:22.883Z,50.13
2018-07-30T21:25:53.666Z,49.61
2018-07-30T21:28:23.401Z,50.09
2018-07-30T21:30:53.047Z,49.81
2018-07-30T21:33:22.737Z,50.00
2018-07-30T21:35:52.610Z,49.35
2018-07-30T21:38:22.300Z,50.67
2018-07-30T21:40:52.039Z,50.74
2018-07-30T21:43:22.039Z,49.96
2018-07-30T21:45:51.809Z,50.31
2018-07-30T21:48:21.522Z,50.48
2018-07-30T21:50:51.390Z,50.73
2018-07-30T21:53:21.978Z,50.48
2018-07-30T21:55:52.488Z,50.85
2018-07-30T21:58:22.814Z,50.83
2018-07-30T22:00:58.485Z,51.27
2018-07-30T22:03:28.238Z,51.39
2018-07-30T22:05:59.321Z,51.29
2018-07-30T22:08:31.036Z,51.38
2018-07-30T22:11:01.210Z,50.97
2018-07-30T22:13:31.983Z,51.24
2018-07-30T22:16:01.766Z,51.41
2018-07-30T22:18:33.202Z,51.79
2018-07-30T22:21:02.808Z,51.83
2018-07-30T22:23:35.591Z,51.88
2018-07-30T22:26:07.310Z,52.04
2018-07-30T22:28:37.499Z,52.44
2018-07-30T22:31:08.109Z,52.22
2018-07-30T22:33:37.829Z,53.10
2018-07-30T22:36:07.546Z,52.45
2018-07-30T22:38:37.473Z,52.84
2018-07-30T22:41:07.513Z,53.04
2018-07-30T22:43:37.823Z,53.19
2018-07-30T22:46:07.782Z,53.19
2018-07-30T22:48:38.104Z,54.35
2018-07-30T22:51:08.147Z,54.17
2018-07-30T22:53:38.788Z,54.33
2018-07-30T22:56:08.500Z,54.84
2018-07-30T22:58:38.294Z,54.48
2018-07-30T23:01:09.145Z,54.74
2018-07-30T23:03:38.987Z,55.03
2018-07-30T23:06:09.137Z,55.02
2018-07-30T23:08:39.779Z,54.57
2018-07-30T23:11:09.832Z,55.59
2018-07-30T23:13:39.645Z,55.32
2018-07-30T23:16:09.828Z,54.67
2018-07-30T23:18:39.649Z,55.98
2018-07-30T23:21:09.799Z,55.42
2018-07-30T23:23:40.164Z,56.22
2018-07-30T23:26:10.089Z,56.33
2018-07-30T23:28:39.961Z,55.98
2018-07-30T23:31:09.690Z,56.05
2018-07-30T23:33:40.744Z,57.18
2018-07-30T23:36:10.656Z,56.70
2018-07-30T23:38:41.337Z,57.22
2018-07-30T23:41:11.145Z,58.17
2018-07-30T23:43:41.494Z,57.67
2018-07-30T23:46:11.212Z,57.54
2018-07-30T23:48:41.847Z,58.13
2018-07-30T23:51:12.118Z,58.61
2018-07-30T23:53:41.992Z,58.29
2018-07-30T23:56:11.722Z,58.45
2018-07-30T23:58:41.802Z,58.89
